createdAt,value
2022-12-22T00:00:07.940Z,21.99
2022-12-22T00:05:08.198Z,22.20
2022-12-22T00:10:06.381Z,22.20
2022-12-22T00:15:05.598Z,22.50
2022-12-22T00:20:04.754Z,23.03
2022-12-22T00:25:03.955Z,23.55
2022-12-22T00:30:03.342Z,24.17
2022-12-22T00:35:03.306Z,24.58
2022-12-22T00:40:01.569Z,25.20
2022-12-22T00:45:01.845Z,25.72
2022-12-22T00:50:00.164Z,26.04
2022-12-22T00:54:59.461Z,26.45
2022-12-22T00:59:58.768Z,26.87
2022-12-22T01:04:59.058Z,27.40
2022-12-22T01:09:59.330Z,27.91
2022-12-22T01:14:57.618Z,28.33
2022-12-22T01:19:55.909Z,28.74
2022-12-22T01:24:55.219Z,29.27
2022-12-22T01:29:53.396Z,29.58
2022-12-22T01:34:55.531Z,29.99
2022-12-22T01:39:54.801Z,30.42
2022-12-22T01:44:52.080Z,30.74
2022-12-22T01:49:52.362Z,31.05
2022-12-22T01:54:50.656Z,31.37
2022-12-22T01:59:51.004Z,31.57
2022-12-22T02:04:49.125Z,31.78
2022-12-22T02:09:49.425Z,32.09
2022-12-22T02:14:47.722Z,32.31
2022-12-22T02:19:48.056Z,32.51
2022-12-22T02:24:46.355Z,32.62
2022-12-22T02:29:46.669Z,32.82
2022-12-22T02:34:45.952Z,32.94
2022-12-22T02:39:46.228Z,33.14
2022-12-22T02:44:43.543Z,33.26
2022-12-22T02:49:42.814Z,33.36
2022-12-22T02:54:42.095Z,33.47
2022-12-22T02:59:41.376Z,33.58
2022-12-22T03:04:40.648Z,33.67
2022-12-22T03:09:39.923Z,33.79
2022-12-22T03:14:40.214Z,33.89
2022-12-22T03:19:40.507Z,34.09
2022-12-22T03:24:38.807Z,34.11
2022-12-22T03:29:37.113Z,34.21
2022-12-22T03:34:37.417Z,34.21
2022-12-22T03:39:36.692Z,34.31
2022-12-22T03:44:34.985Z,34.53
2022-12-22T03:49:33.278Z,34.53
2022-12-22T03:54:33.612Z,34.63
2022-12-22T03:59:34.891Z,34.64
2022-12-22T04:04:33.160Z,34.74
2022-12-22T04:09:31.467Z,34.84
2022-12-22T04:14:34.318Z,34.94
2022-12-22T04:19:29.989Z,34.94
2022-12-22T04:24:29.315Z,34.96
2022-12-22T04:29:29.626Z,34.96
2022-12-22T04:34:28.940Z,34.96
2022-12-22T04:39:29.298Z,34.96
2022-12-22T04:44:26.599Z,34.96
2022-12-22T04:49:25.947Z,35.08
2022-12-22T04:54:25.264Z,35.18
2022-12-22T04:59:24.626Z,35.18
2022-12-22T05:04:25.768Z,35.18
2022-12-22T05:09:23.094Z,35.18
2022-12-22T05:14:22.232Z,35.28
2022-12-22T05:19:24.883Z,35.28
2022-12-22T05:24:21.564Z,35.30
2022-12-22T05:29:20.881Z,35.30
2022-12-22T05:34:19.231Z,35.39
2022-12-22T05:39:18.519Z,35.39
2022-12-22T05:44:17.811Z,35.50
2022-12-22T05:49:17.123Z,35.50
2022-12-22T05:54:16.436Z,35.50
2022-12-22T05:59:15.579Z,35.61
2022-12-22T06:04:15.842Z,35.61
2022-12-22T06:09:15.087Z,35.71
2022-12-22T06:14:13.242Z,35.82
2022-12-22T06:19:13.396Z,35.91
2022-12-22T06:24:12.545Z,36.02
2022-12-22T06:29:10.832Z,36.02
2022-12-22T06:34:11.138Z,35.91
2022-12-22T06:39:09.445Z,36.02
2022-12-22T06:44:08.780Z,36.13
2022-12-22T06:49:08.932Z,36.64
2022-12-22T06:54:07.095Z,36.64
2022-12-22T06:59:06.421Z,36.44
2022-12-22T07:04:06.659Z,36.22
2022-12-22T07:09:04.762Z,36.02
2022-12-22T07:14:05.058Z,35.91
2022-12-22T07:19:03.398Z,35.71
2022-12-22T07:24:02.700Z,35.71
2022-12-22T07:29:02.021Z,35.51
2022-12-22T07:34:02.367Z,35.51
2022-12-22T07:39:00.487Z,35.51
2022-12-22T07:43:59.799Z,35.51
2022-12-22T07:48:59.127Z,35.51
2022-12-22T07:53:59.459Z,35.61
2022-12-22T07:58:58.818Z,35.61
2022-12-22T08:03:56.963Z,35.73
2022-12-22T08:08:57.095Z,35.73
2022-12-22T08:14:01.354Z,35.83
2022-12-22T08:18:54.688Z,35.83
2022-12-22T08:23:53.964Z,35.93
2022-12-22T08:28:53.213Z,36.13
2022-12-22T08:33:53.453Z,36.24
2022-12-22T08:38:52.654Z,36.24
2022-12-22T08:43:51.841Z,37.65
2022-12-22T08:48:50.111Z,37.24
2022-12-22T08:54:06.684Z,37.24
2022-12-22T08:58:49.550Z,37.14
2022-12-22T09:03:47.825Z,37.14
2022-12-22T09:08:47.039Z,37.14
2022-12-22T09:13:47.220Z,37.04
2022-12-22T09:18:45.392Z,36.94
2022-12-22T09:23:45.582Z,36.84
2022-12-22T09:28:49.887Z,36.96
2022-12-22T09:33:45.025Z,36.86
2022-12-22T09:38:42.217Z,36.86
2022-12-22T09:43:41.412Z,36.86
2022-12-22T09:48:40.671Z,36.86
2022-12-22T09:53:39.838Z,36.86
2022-12-22T09:58:39.032Z,36.76
2022-12-22T10:03:38.330Z,36.66
2022-12-22T10:08:39.371Z,36.55
2022-12-22T10:13:37.564Z,36.46
2022-12-22T10:18:36.774Z,36.35
2022-12-22T10:23:35.106Z,36.35
2022-12-22T10:28:34.321Z,36.25
2022-12-22T10:33:33.563Z,36.25
2022-12-22T10:38:32.784Z,36.15
2022-12-22T10:43:31.970Z,36.15
2022-12-22T10:48:31.178Z,36.05
2022-12-22T10:53:32.359Z,36.05
2022-12-22T10:58:29.624Z,35.95
2022-12-22T11:03:29.990Z,35.95
2022-12-22T11:08:28.128Z,35.85
2022-12-22T11:13:27.352Z,35.85
2022-12-22T11:18:26.574Z,35.85
2022-12-22T11:23:25.807Z,35.85
2022-12-22T11:28:25.028Z,35.75
2022-12-22T11:33:24.233Z,35.75
2022-12-22T11:38:23.437Z,35.75
2022-12-22T11:43:22.676Z,35.65
2022-12-22T11:48:21.909Z,35.75
2022-12-22T11:53:22.065Z,35.65
2022-12-22T11:58:21.239Z,35.65
2022-12-22T12:03:19.652Z,35.55
2022-12-22T12:08:18.603Z,35.55
2022-12-22T12:13:25.565Z,35.45
2022-12-22T12:18:16.915Z,35.35
2022-12-22T12:23:16.229Z,35.25
2022-12-22T12:28:16.602Z,35.14
2022-12-22T12:33:16.765Z,35.13
2022-12-22T12:38:25.965Z,35.13
2022-12-22T12:43:16.459Z,35.03
2022-12-22T12:48:13.339Z,35.03
2022-12-22T12:53:11.668Z,35.03
2022-12-22T12:58:11.790Z,35.03
2022-12-22T13:03:24.882Z,35.03
2022-12-22T13:08:09.400Z,35.03
2022-12-22T13:13:08.547Z,35.05
2022-12-22T13:18:08.907Z,35.05
2022-12-22T13:23:07.157Z,35.05
2022-12-22T13:28:07.441Z,35.05
2022-12-22T13:33:05.772Z,35.05
2022-12-22T13:38:04.916Z,35.14
2022-12-22T13:43:04.070Z,35.14
2022-12-22T13:48:02.277Z,35.05
2022-12-22T13:53:02.426Z,35.14
2022-12-22T13:58:01.544Z,35.14
2022-12-22T14:03:02.131Z,35.05
2022-12-22T14:08:00.192Z,35.05
2022-12-22T14:12:59.310Z,35.03
2022-12-22T14:17:58.659Z,34.92
2022-12-22T14:22:57.779Z,34.83
2022-12-22T14:27:57.101Z,34.83
2022-12-22T14:32:57.453Z,34.83
2022-12-22T14:37:56.580Z,34.83
2022-12-22T14:42:55.700Z,34.83
2022-12-22T14:47:55.059Z,34.83
2022-12-22T14:52:54.230Z,34.83
2022-12-22T14:57:52.344Z,34.83
2022-12-22T15:02:51.800Z,34.83
2022-12-22T15:08:08.471Z,34.83
2022-12-22T15:12:51.041Z,34.84
2022-12-22T15:17:49.152Z,34.94
2022-12-22T15:22:48.459Z,34.94
2022-12-22T15:27:47.772Z,34.94
2022-12-22T15:32:48.083Z,34.94
2022-12-22T15:37:48.377Z,35.05
2022-12-22T15:42:46.692Z,35.05
2022-12-22T15:47:44.809Z,35.05
2022-12-22T15:52:45.173Z,35.14
2022-12-22T15:57:44.234Z,35.05
2022-12-22T16:02:42.751Z,34.94
2022-12-22T16:07:42.838Z,34.94
2022-12-22T16:12:42.173Z,34.84
2022-12-22T16:17:41.322Z,34.84
2022-12-22T16:22:39.477Z,34.84
2022-12-22T16:27:38.628Z,34.84
2022-12-22T16:32:37.768Z,34.84
2022-12-22T16:37:36.957Z,34.84
2022-12-22T19:23:18.712Z,22.38
2022-12-22T19:28:19.016Z,22.67
2022-12-22T19:33:17.315Z,23.39
2022-12-22T19:38:16.670Z,23.59
2022-12-22T19:43:15.813Z,23.38
2022-12-22T19:48:16.161Z,23.17
2022-12-22T19:53:15.470Z,22.85
2022-12-22T19:58:14.033Z,22.64
2022-12-22T20:03:14.105Z,23.26
2022-12-22T20:08:13.366Z,23.77
2022-12-22T20:13:13.643Z,23.76
2022-12-22T20:18:11.915Z,23.66
2022-12-22T20:23:10.203Z,23.55
2022-12-22T20:28:11.700Z,23.55
2022-12-22T20:33:08.660Z,23.65
2022-12-22T20:38:09.907Z,23.85
2022-12-22T20:43:08.212Z,23.85
2022-12-22T20:48:07.751Z,23.74
2022-12-22T20:53:05.701Z,23.95
2022-12-22T20:58:04.887Z,23.74
2022-12-22T21:03:05.379Z,23.85
2022-12-22T21:08:03.434Z,24.15
2022-12-22T21:13:02.592Z,24.15
2022-12-22T21:18:01.754Z,24.05
2022-12-22T21:23:00.917Z,23.94
2022-12-22T21:28:00.117Z,23.73
2022-12-22T21:33:00.297Z,23.52
2022-12-22T21:37:58.457Z,23.32
2022-12-22T21:42:57.611Z,23.31
2022-12-22T21:47:56.787Z,23.21
2022-12-22T21:52:55.936Z,23.00
2022-12-22T21:57:56.106Z,23.00
2022-12-22T22:02:55.353Z,23.00
2022-12-22T22:07:53.593Z,23.00
2022-12-22T22:12:52.772Z,23.20
2022-12-22T22:17:52.956Z,23.40
2022-12-22T22:22:51.104Z,23.19
2022-12-22T22:27:51.252Z,23.09
2022-12-22T22:32:50.423Z,22.99
2022-12-22T22:37:50.699Z,23.30
2022-12-22T22:42:47.872Z,24.01
2022-12-22T22:47:48.046Z,24.11
2022-12-22T22:52:46.240Z,24.01
2022-12-22T22:57:45.441Z,24.01
2022-12-22T23:02:44.883Z,23.91
2022-12-22T23:07:43.881Z,24.01
2022-12-22T23:12:47.063Z,23.91
2022-12-22T23:17:42.264Z,23.80
2022-12-22T23:22:42.465Z,24.01
2022-12-22T23:27:40.617Z,23.91
2022-12-22T23:32:40.808Z,24.01
2022-12-22T23:37:38.979Z,23.71
2022-12-22T23:42:38.126Z,23.61
2022-12-22T23:47:37.334Z,23.61
2022-12-22T23:52:37.492Z,24.02
2022-12-22T23:57:36.689Z,24.43
